sensor_id;sensor_type;location;lat;lon;timestamp;pressure;altitude;pressure_sealevel;temperature;humidity
36092;BME280;22147;52.388;13.390;2023-04-08T00:01:05;101473.03;;;3.79;100.00
36092;BME280;22147;52.388;13.390;2023-04-08T00:03:35;101479.09;;;3.81;100.00
36092;BME280;22147;52.388;13.390;2023-04-08T00:06:05;101468.91;;;3.82;100.00
36092;BME280;22147;52.388;13.390;2023-04-08T00:08:34;101471.09;;;3.80;100.00
36092;BME280;22147;52.388;13.390;2023-04-08T00:11:02;101471.97;;;3.85;100.00
36092;BME280;22147;52.388;13.390;2023-04-08T00:13:30;101469.16;;;3.80;100.00
36092;BME280;22147;52.388;13.390;2023-04-08T00:15:59;101480.97;;;3.81;100.00
36092;BME280;22147;52.388;13.390;2023-04-08T00:18:27;101479.91;;;3.82;100.00
36092;BME280;22147;52.388;13.390;2023-04-08T00:20:56;101475.47;;;3.81;100.00
36092;BME280;22147;52.388;13.390;2023-04-08T00:23:24;101469.16;;;3.80;100.00
36092;BME280;22147;52.388;13.390;2023-04-08T00:25:53;101470.84;;;3.81;100.00
36092;BME280;22147;52.388;13.390;2023-04-08T00:28:21;101474.91;;;3.79;100.00
36092;BME280;22147;52.388;13.390;2023-04-08T00:30:49;101478.53;;;3.79;100.00
36092;BME280;22147;52.388;13.390;2023-04-08T00:33:24;101476.34;;;3.81;100.00
36092;BME280;22147;52.388;13.390;2023-04-08T00:35:54;101476.91;;;3.83;100.00
36092;BME280;22147;52.388;13.390;2023-04-08T00:38:24;101475.47;;;3.81;100.00
36092;BME280;22147;52.388;13.390;2023-04-08T00:40:54;101476.63;;;3.85;100.00
36092;BME280;22147;52.388;13.390;2023-04-08T00:43:25;101481.03;;;3.86;100.00
36092;BME280;22147;52.388;13.390;2023-04-08T00:45:55;101481.53;;;3.83;100.00
36092;BME280;22147;52.388;13.390;2023-04-08T00:48:26;101474.97;;;3.84;100.00
36092;BME280;22147;52.388;13.390;2023-04-08T00:50:57;101484.66;;;3.97;100.00
36092;BME280;22147;52.388;13.390;2023-04-08T00:53:30;101475.00;;;3.89;100.00
36092;BME280;22147;52.388;13.390;2023-04-08T00:56:01;101476.91;;;3.83;100.00
36092;BME280;22147;52.388;13.390;2023-04-08T00:58:31;101473.88;;;3.85;100.00
36092;BME280;22147;52.388;13.390;2023-04-08T01:01:24;101466.72;;;3.84;100.00
36092;BME280;22147;52.388;13.390;2023-04-08T01:07:46;101470.34;;;3.90;100.00
36092;BME280;22147;52.388;13.390;2023-04-08T01:10:34;101473.09;;;3.90;100.00
36092;BME280;22147;52.388;13.390;2023-04-08T01:13:11;101482.97;;;3.85;100.00
36092;BME280;22147;52.388;13.390;2023-04-08T01:15:47;101468.94;;;3.87;100.00
36092;BME280;22147;52.388;13.390;2023-04-08T01:18:21;101486.53;;;3.86;100.00
36092;BME280;22147;52.388;13.390;2023-04-08T01:20:54;101482.66;;;3.82;100.00
36092;BME280;22147;52.388;13.390;2023-04-08T01:23:56;101483.22;;;3.84;100.00
36092;BME280;22147;52.388;13.390;2023-04-08T01:26:31;101487.88;;;3.83;100.00
36092;BME280;22147;52.388;13.390;2023-04-08T01:29:04;101490.06;;;3.81;100.00
36092;BME280;22147;52.388;13.390;2023-04-08T01:31:38;101491.16;;;3.80;100.00
36092;BME280;22147;52.388;13.390;2023-04-08T01:34:14;101488.72;;;3.84;100.00
36092;BME280;22147;52.388;13.390;2023-04-08T01:36:49;101488.16;;;3.87;100.00
36092;BME280;22147;52.388;13.390;2023-04-08T01:39:20;101489.03;;;3.93;100.00
36092;BME280;22147;52.388;13.390;2023-04-08T01:41:52;101491.22;;;3.91;100.00
36092;BME280;22147;52.388;13.390;2023-04-08T01:44:25;101491.78;;;3.93;100.00
36092;BME280;22147;52.388;13.390;2023-04-08T01:46:56;101493.16;;;3.95;100.00
36092;BME280;22147;52.388;13.390;2023-04-08T01:49:29;101492.03;;;3.91;100.00
36092;BME280;22147;52.388;13.390;2023-04-08T01:51:59;101494.31;;;3.99;100.00
36092;BME280;22147;52.388;13.390;2023-04-08T01:54:28;101495.66;;;3.97;100.00
36092;BME280;22147;52.388;13.390;2023-04-08T01:57:03;101499.78;;;3.94;100.00
36092;BME280;22147;52.388;13.390;2023-04-08T01:59:39;101496.47;;;3.92;100.00
36092;BME280;22147;52.388;13.390;2023-04-08T02:02:13;101501.97;;;3.97;100.00
36092;BME280;22147;52.388;13.390;2023-04-08T02:04:46;101494.28;;;3.94;100.00
36092;BME280;22147;52.388;13.390;2023-04-08T02:07:17;101495.66;;;3.92;100.00
36092;BME280;22147;52.388;13.390;2023-04-08T02:09:47;101493.47;;;3.94;100.00
36092;BME280;22147;52.388;13.390;2023-04-08T02:12:16;101490.44;;;3.95;100.00
36092;BME280;22147;52.388;13.390;2023-04-08T02:14:47;101488.78;;;3.94;100.00
36092;BME280;22147;52.388;13.390;2023-04-08T02:17:36;101500.09;;;4.03;100.00
36092;BME280;22147;52.388;13.390;2023-04-08T02:20:58;101498.41;;;3.97;100.00
36092;BME280;22147;52.388;13.390;2023-04-08T02:23:40;101500.34;;;3.96;100.00
36092;BME280;22147;52.388;13.390;2023-04-08T02:26:16;101514.66;;;3.98;100.00
36092;BME280;22147;52.388;13.390;2023-04-08T02:28:49;101511.34;;;3.96;100.00
36092;BME280;22147;52.388;13.390;2023-04-08T02:31:25;101509.66;;;3.95;100.00
36092;BME280;22147;52.388;13.390;2023-04-08T02:33:57;101512.13;;;3.92;100.00
36092;BME280;22147;52.388;13.390;2023-04-08T02:36:30;101515.47;;;3.99;100.00
36092;BME280;22147;52.388;13.390;2023-04-08T02:39:03;101518.72;;;3.96;100.00
36092;BME280;22147;52.388;13.390;2023-04-08T02:41:33;101515.22;;;4.05;100.00
36092;BME280;22147;52.388;13.390;2023-04-08T02:44:04;101519.91;;;4.05;100.00
36092;BME280;22147;52.388;13.390;2023-04-08T02:46:34;101522.91;;;3.98;100.00
36092;BME280;22147;52.388;13.390;2023-04-08T02:49:04;101525.09;;;3.96;100.00
36092;BME280;22147;52.388;13.390;2023-04-08T02:51:35;101532.53;;;4.01;100.00
36092;BME280;22147;52.388;13.390;2023-04-08T02:54:05;101530.03;;;3.99;100.00
36092;BME280;22147;52.388;13.390;2023-04-08T02:56:35;101535.22;;;3.96;100.00
36092;BME280;22147;52.388;13.390;2023-04-08T02:59:05;101528.34;;;3.93;100.00
36092;BME280;22147;52.388;13.390;2023-04-08T03:01:34;101521.72;;;3.89;100.00
36092;BME280;22147;52.388;13.390;2023-04-08T03:04:02;101525.31;;;3.90;100.00
36092;BME280;22147;52.388;13.390;2023-04-08T03:06:31;101533.00;;;3.93;100.00
36092;BME280;22147;52.388;13.390;2023-04-08T03:08:59;101531.22;;;4.08;100.00
36092;BME280;22147;52.388;13.390;2023-04-08T03:11:28;101531.72;;;4.05;100.00
36092;BME280;22147;52.388;13.390;2023-04-08T03:13:56;101531.22;;;4.08;100.00
36092;BME280;22147;52.388;13.390;2023-04-08T03:16:25;101528.38;;;3.98;100.00
36092;BME280;22147;52.388;13.390;2023-04-08T03:18:53;101536.06;;;3.96;100.00
36092;BME280;22147;52.388;13.390;2023-04-08T03:21:21;101548.97;;;3.96;100.00
36092;BME280;22147;52.388;13.390;2023-04-08T03:23:50;101550.88;;;3.95;100.00
36092;BME280;22147;52.388;13.390;2023-04-08T03:26:18;101550.31;;;3.93;100.00
36092;BME280;22147;52.388;13.390;2023-04-08T03:28:47;101548.19;;;4.00;100.00
36092;BME280;22147;52.388;13.390;2023-04-08T03:31:15;101550.09;;;4.00;100.00
36092;BME280;22147;52.388;13.390;2023-04-08T03:33:43;101543.75;;;3.94;100.00
36092;BME280;22147;52.388;13.390;2023-04-08T03:36:12;101554.19;;;3.92;100.00
36092;BME280;22147;52.388;13.390;2023-04-08T03:38:40;101555.00;;;3.93;100.00
36092;BME280;22147;52.388;13.390;2023-04-08T03:41:09;101546.44;;;3.89;100.00
36092;BME280;22147;52.388;13.390;2023-04-08T03:43:37;101554.41;;;3.85;100.00
36092;BME280;22147;52.388;13.390;2023-04-08T03:46:06;101555.78;;;3.88;100.00
36092;BME280;22147;52.388;13.390;2023-04-08T03:48:34;101557.75;;;3.93;100.00
36092;BME280;22147;52.388;13.390;2023-04-08T03:51:02;101559.44;;;3.94;100.00
36092;BME280;22147;52.388;13.390;2023-04-08T03:53:31;101557.50;;;3.94;100.00
36092;BME280;22147;52.388;13.390;2023-04-08T03:55:59;101559.97;;;3.96;100.00
36092;BME280;22147;52.388;13.390;2023-04-08T03:58:31;101559.13;;;3.95;100.00
36092;BME280;22147;52.388;13.390;2023-04-08T04:00:59;101564.88;;;3.88;100.00
36092;BME280;22147;52.388;13.390;2023-04-08T04:03:27;101564.59;;;3.90;100.00
36092;BME280;22147;52.388;13.390;2023-04-08T04:05:56;101571.50;;;3.93;100.00
36092;BME280;22147;52.388;13.390;2023-04-08T04:08:24;101570.41;;;3.94;100.00
36092;BME280;22147;52.388;13.390;2023-04-08T04:10:53;101574.00;;;3.99;100.00
36092;BME280;22147;52.388;13.390;2023-04-08T04:13:21;101576.44;;;3.96;100.00
36092;BME280;22147;52.388;13.390;2023-04-08T04:15:50;101578.13;;;3.97;100.00
36092;BME280;22147;52.388;13.390;2023-04-08T04:18:20;101583.88;;;3.95;100.00
36092;BME280;22147;52.388;13.390;2023-04-08T04:20:50;101575.63;;;3.95;100.00
36092;BME280;22147;52.388;13.390;2023-04-08T04:23:20;101589.66;;;3.94;100.00
36092;BME280;22147;52.388;13.390;2023-04-08T04:25:53;101577.00;;;3.93;100.00
36092;BME280;22147;52.388;13.390;2023-04-08T04:28:23;101580.63;;;3.98;100.00
36092;BME280;22147;52.388;13.390;2023-04-08T04:30:53;101589.44;;;4.00;100.00
36092;BME280;22147;52.388;13.390;2023-04-08T04:33:25;101588.00;;;3.98;100.00
36092;BME280;22147;52.388;13.390;2023-04-08T04:35:56;101591.56;;;3.93;100.00
36092;BME280;22147;52.388;13.390;2023-04-08T04:38:26;101601.47;;;3.94;100.00
36092;BME280;22147;52.388;13.390;2023-04-08T04:40:56;101605.63;;;3.97;100.00
36092;BME280;22147;52.388;13.390;2023-04-08T04:43:27;101597.94;;;3.99;100.00
36092;BME280;22147;52.388;13.390;2023-04-08T04:45:58;101612.16;;;3.91;100.00
36092;BME280;22147;52.388;13.390;2023-04-08T04:48:28;101615.78;;;3.96;100.00
36092;BME280;22147;52.388;13.390;2023-04-08T04:50:59;101607.56;;;4.01;100.00
36092;BME280;22147;52.388;13.390;2023-04-08T04:53:32;101613.31;;;4.00;100.00
36092;BME280;22147;52.388;13.390;2023-04-08T04:56:00;101616.84;;;3.95;100.00
36092;BME280;22147;52.388;13.390;2023-04-08T04:58:29;101614.69;;;3.97;100.00
36092;BME280;22147;52.388;13.390;2023-04-08T05:00:57;101615.25;;;3.99;100.00
36092;BME280;22147;52.388;13.390;2023-04-08T05:03:25;101635.13;;;4.06;100.00
36092;BME280;22147;52.388;13.390;2023-04-08T05:05:54;101621.97;;;4.14;100.00
36092;BME280;22147;52.388;13.390;2023-04-08T05:08:22;101636.97;;;4.01;100.00
36092;BME280;22147;52.388;13.390;2023-04-08T05:10:54;101629.81;;;4.00;100.00
36092;BME280;22147;52.388;13.390;2023-04-08T05:13:22;101630.13;;;4.03;100.00
36092;BME280;22147;52.388;13.390;2023-04-08T05:15:50;101645.53;;;4.04;100.00
36092;BME280;22147;52.388;13.390;2023-04-08T05:18:21;101637.50;;;3.98;100.00
36092;BME280;22147;52.388;13.390;2023-04-08T05:20:51;101634.75;;;3.98;100.00
36092;BME280;22147;52.388;13.390;2023-04-08T05:23:21;101651.28;;;4.03;100.00
36092;BME280;22147;52.388;13.390;2023-04-08T05:25:52;101645.81;;;4.08;100.00
36092;BME280;22147;52.388;13.390;2023-04-08T05:28:22;101648.56;;;4.08;100.00
36092;BME280;22147;52.388;13.390;2023-04-08T05:30:53;101645.81;;;4.08;100.00
36092;BME280;22147;52.388;13.390;2023-04-08T05:33:23;101653.81;;;4.10;100.00
36092;BME280;22147;52.388;13.390;2023-04-08T05:35:55;101655.22;;;4.12;100.00
36092;BME280;22147;52.388;13.390;2023-04-08T05:38:25;101658.28;;;4.16;100.00
36092;BME280;22147;52.388;13.390;2023-04-08T05:40:55;101656.09;;;4.18;100.00
36092;BME280;22147;52.388;13.390;2023-04-08T05:43:26;101661.38;;;4.24;100.00
36092;BME280;22147;52.388;13.390;2023-04-08T05:45:56;101666.63;;;4.31;100.00
36092;BME280;22147;52.388;13.390;2023-04-08T05:48:26;101662.25;;;4.30;100.00
36092;BME280;22147;52.388;13.390;2023-04-08T05:50:56;101671.56;;;4.29;100.00
36092;BME280;22147;52.388;13.390;2023-04-08T05:53:26;101668.00;;;4.28;100.00
36092;BME280;22147;52.388;13.390;2023-04-08T05:55:57;101678.53;;;4.37;100.00
36092;BME280;22147;52.388;13.390;2023-04-08T05:58:27;101683.22;;;4.41;100.00
36092;BME280;22147;52.388;13.390;2023-04-08T06:00:57;101679.09;;;4.39;100.00
36092;BME280;22147;52.388;13.390;2023-04-08T06:03:29;101682.69;;;4.44;100.00
36092;BME280;22147;52.388;13.390;2023-04-08T06:05:59;101687.94;;;4.46;100.00
36092;BME280;22147;52.388;13.390;2023-04-08T06:08:30;101686.94;;;4.57;100.00
36092;BME280;22147;52.388;13.390;2023-04-08T06:11:00;101687.50;;;4.59;100.00
36092;BME280;22147;52.388;13.390;2023-04-08T06:13:32;101687.50;;;4.59;100.00
36092;BME280;22147;52.388;13.390;2023-04-08T06:16:11;101693.00;;;4.59;100.00
36092;BME280;22147;52.388;13.390;2023-04-08T06:18:43;101701.03;;;4.66;100.00
36092;BME280;22147;52.388;13.390;2023-04-08T06:21:13;101699.69;;;4.74;100.00
36092;BME280;22147;52.388;13.390;2023-04-08T06:23:43;101706.06;;;4.79;100.00
36092;BME280;22147;52.388;13.390;2023-04-08T06:26:14;101706.69;;;4.92;100.00
36092;BME280;22147;52.388;13.390;2023-04-08T06:28:45;101708.84;;;4.84;100.00
36092;BME280;22147;52.388;13.390;2023-04-08T06:31:15;101703.88;;;4.86;100.00
36092;BME280;22147;52.388;13.390;2023-04-08T06:33:45;101712.25;;;5.02;100.00
36092;BME280;22147;52.388;13.390;2023-04-08T06:36:15;101713.09;;;5.07;100.00
36092;BME280;22147;52.388;13.390;2023-04-08T06:38:46;101717.22;;;5.10;100.00
36092;BME280;22147;52.388;13.390;2023-04-08T06:41:16;101723.03;;;5.14;100.00
36092;BME280;22147;52.388;13.390;2023-04-08T06:43:46;101723.59;;;5.16;100.00
36092;BME280;22147;52.388;13.390;2023-04-08T06:46:16;101731.06;;;5.20;100.00
36092;BME280;22147;52.388;13.390;2023-04-08T06:48:47;101724.78;;;5.25;100.00
36092;BME280;22147;52.388;13.390;2023-04-08T06:51:17;101731.63;;;5.17;100.00
36092;BME280;22147;52.388;13.390;2023-04-08T06:53:48;101733.03;;;5.25;100.00
36092;BME280;22147;52.388;13.390;2023-04-08T06:56:18;101738.88;;;5.44;100.00
36092;BME280;22147;52.388;13.390;2023-04-08T06:58:50;101741.44;;;5.56;100.00
36092;BME280;22147;52.388;13.390;2023-04-08T07:01:21;101746.69;;;5.62;100.00
36092;BME280;22147;52.388;13.390;2023-04-08T07:03:51;101747.84;;;5.71;100.00
36092;BME280;22147;52.388;13.390;2023-04-08T07:06:22;101748.16;;;5.90;100.00
36092;BME280;22147;52.388;13.390;2023-04-08T07:08:50;101757.63;;;6.15;100.00
36092;BME280;22147;52.388;13.390;2023-04-08T07:11:18;101754.88;;;6.25;100.00
36092;BME280;22147;52.388;13.390;2023-04-08T07:13:47;101754.31;;;6.39;100.00
36092;BME280;22147;52.388;13.390;2023-04-08T07:16:15;101752.69;;;6.38;100.00
36092;BME280;22147;52.388;13.390;2023-04-08T07:18:44;101766.19;;;6.49;100.00
36092;BME280;22147;52.388;13.390;2023-04-08T07:21:12;101762.63;;;6.34;100.00
36092;BME280;22147;52.388;13.390;2023-04-08T07:23:41;101760.69;;;6.29;100.00
36092;BME280;22147;52.388;13.390;2023-04-08T07:26:09;101760.69;;;6.34;100.00
36092;BME280;22147;52.388;13.390;2023-04-08T07:28:37;101757.91;;;6.29;100.00
36092;BME280;22147;52.388;13.390;2023-04-08T07:31:17;101770.06;;;6.53;100.00
36092;BME280;22147;52.388;13.390;2023-04-08T07:33:47;101765.34;;;6.95;100.00
36092;BME280;22147;52.388;13.390;2023-04-08T07:36:18;101770.88;;;7.05;100.00
36092;BME280;22147;52.388;13.390;2023-04-08T07:38:48;101773.94;;;6.99;100.00
36092;BME280;22147;52.388;13.390;2023-04-08T07:41:19;101776.66;;;7.09;100.00
36092;BME280;22147;52.388;13.390;2023-04-08T07:43:50;101781.09;;;7.05;100.00
36092;BME280;22147;52.388;13.390;2023-04-08T07:46:20;101777.22;;;6.85;100.00
36092;BME280;22147;52.388;13.390;2023-04-08T07:48:50;101783.59;;;6.70;100.00
36092;BME280;22147;52.388;13.390;2023-04-08T07:51:21;101783.56;;;6.96;100.00
36092;BME280;22147;52.388;13.390;2023-04-08T07:53:51;101784.66;;;7.21;100.00
36092;BME280;22147;52.388;13.390;2023-04-08T07:56:21;101783.22;;;7.33;100.00
36092;BME280;22147;52.388;13.390;2023-04-08T07:58:51;101779.06;;;7.41;100.00
36092;BME280;22147;52.388;13.390;2023-04-08T08:01:23;101786.84;;;7.24;100.00
36092;BME280;22147;52.388;13.390;2023-04-08T08:03:51;101789.66;;;7.03;100.00
36092;BME280;22147;52.388;13.390;2023-04-08T08:06:20;101791.84;;;7.06;100.00
36092;BME280;22147;52.388;13.390;2023-04-08T08:08:48;101788.00;;;6.87;100.00
36092;BME280;22147;52.388;13.390;2023-04-08T08:11:16;101791.03;;;6.85;100.00
36092;BME280;22147;52.388;13.390;2023-04-08T08:13:45;101789.66;;;7.03;100.00
36092;BME280;22147;52.388;13.390;2023-04-08T08:16:13;101795.44;;;7.12;100.00
36092;BME280;22147;52.388;13.390;2023-04-08T08:18:42;101801.25;;;7.16;100.00
36092;BME280;22147;52.388;13.390;2023-04-08T08:21:10;101795.41;;;7.17;100.00
36092;BME280;22147;52.388;13.390;2023-04-08T08:23:38;101807.28;;;7.28;100.00
36092;BME280;22147;52.388;13.390;2023-04-08T08:26:08;101803.97;;;7.31;100.00
36092;BME280;22147;52.388;13.390;2023-04-08T08:28:39;101801.19;;;7.26;100.00
36092;BME280;22147;52.388;13.390;2023-04-08T08:31:07;101810.34;;;7.21;100.00
36092;BME280;22147;52.388;13.390;2023-04-08T08:33:35;101802.56;;;7.33;100.00
36092;BME280;22147;52.388;13.390;2023-04-08T08:36:04;101804.78;;;7.31;100.00
36092;BME280;22147;52.388;13.390;2023-04-08T08:38:35;101803.47;;;7.13;100.00
36092;BME280;22147;52.388;13.390;2023-04-08T08:41:06;101811.19;;;7.06;100.00
36092;BME280;22147;52.388;13.390;2023-04-08T08:43:37;101810.63;;;6.94;100.00
36092;BME280;22147;52.388;13.390;2023-04-08T08:46:09;101813.38;;;7.25;100.00
36092;BME280;22147;52.388;13.390;2023-04-08T08:48:41;101809.44;;;7.46;100.00
36092;BME280;22147;52.388;13.390;2023-04-08T08:51:12;101821.03;;;7.59;100.00
36092;BME280;22147;52.388;13.390;2023-04-08T08:53:42;101828.22;;;7.54;100.00
36092;BME280;22147;52.388;13.390;2023-04-08T08:56:14;101832.66;;;7.50;100.00
36092;BME280;22147;52.388;13.390;2023-04-08T08:58:47;101830.72;;;7.56;100.00
36092;BME280;22147;52.388;13.390;2023-04-08T09:01:31;101837.88;;;7.57;100.00
36092;BME280;22147;52.388;13.390;2023-04-08T09:04:08;101841.53;;;7.32;100.00
36092;BME280;22147;52.388;13.390;2023-04-08T09:06:42;101836.84;;;7.27;100.00
36092;BME280;22147;52.388;13.390;2023-04-08T09:09:13;101845.41;;;7.41;100.00
36092;BME280;22147;52.388;13.390;2023-04-08T09:11:46;101850.13;;;7.30;100.00
36092;BME280;22147;52.388;13.390;2023-04-08T09:14:22;101847.94;;;7.22;100.00
36092;BME280;22147;52.388;13.390;2023-04-08T09:16:53;101860.06;;;7.42;100.00
36092;BME280;22147;52.388;13.390;2023-04-08T09:19:23;101858.91;;;7.68;100.00
36092;BME280;22147;52.388;13.390;2023-04-08T09:22:08;101865.16;;;7.94;100.00
36092;BME280;22147;52.388;13.390;2023-04-08T09:24:39;101866.13;;;8.24;100.00
36092;BME280;22147;52.388;13.390;2023-04-08T09:27:11;101868.03;;;8.34;100.00
36092;BME280;22147;52.388;13.390;2023-04-08T09:29:42;101866.94;;;8.30;100.00
36092;BME280;22147;52.388;13.390;2023-04-08T09:32:11;101863.63;;;8.23;100.00
36092;BME280;22147;52.388;13.390;2023-04-08T09:34:39;101868.63;;;8.21;100.00
36092;BME280;22147;52.388;13.390;2023-04-08T09:37:08;101878.22;;;8.49;100.00
36092;BME280;22147;52.388;13.390;2023-04-08T09:39:37;101870.56;;;8.75;100.00
36092;BME280;22147;52.388;13.390;2023-04-08T09:42:11;101870.22;;;9.16;100.00
36092;BME280;22147;52.388;13.390;2023-04-08T09:44:47;101881.59;;;9.44;100.00
36092;BME280;22147;52.388;13.390;2023-04-08T09:47:28;101876.09;;;9.68;100.00
36092;BME280;22147;52.388;13.390;2023-04-08T09:50:06;101880.69;;;9.53;100.00
36092;BME280;22147;52.388;13.390;2023-04-08T09:52:44;101877.00;;;9.34;100.00
36092;BME280;22147;52.388;13.390;2023-04-08T09:55:27;101877.44;;;9.17;100.00
36092;BME280;22147;52.388;13.390;2023-04-08T09:58:10;101879.31;;;9.22;100.00
36092;BME280;22147;52.388;13.390;2023-04-08T10:00:49;101881.91;;;8.79;100.00
36092;BME280;22147;52.388;13.390;2023-04-08T10:03:36;101872.44;;;8.85;100.00
36092;BME280;22147;52.388;13.390;2023-04-08T10:06:11;101883.59;;;9.09;100.00
36092;BME280;22147;52.388;13.390;2023-04-08T10:08:41;101879.78;;;9.34;100.00
36092;BME280;22147;52.388;13.390;2023-04-08T10:11:15;101874.34;;;9.48;100.00
36092;BME280;22147;52.388;13.390;2023-04-08T10:13:45;101885.06;;;9.30;100.00
36092;BME280;22147;52.388;13.390;2023-04-08T10:16:25;101887.91;;;9.20;100.00
36092;BME280;22147;52.388;13.390;2023-04-08T10:18:56;101879.50;;;9.30;100.00
36092;BME280;22147;52.388;13.390;2023-04-08T10:21:34;101879.50;;;9.30;100.00
36092;BME280;22147;52.388;13.390;2023-04-08T10:24:10;101879.38;;;9.16;100.00
36092;BME280;22147;52.388;13.390;2023-04-08T10:26:43;101889.34;;;9.17;100.00
36092;BME280;22147;52.388;13.390;2023-04-08T10:31:48;101889.31;;;9.76;100.00
36092;BME280;22147;52.388;13.390;2023-04-08T10:34:24;101880.94;;;9.57;100.00
36092;BME280;22147;52.388;13.390;2023-04-08T10:36:56;101881.22;;;9.79;100.00
36092;BME280;22147;52.388;13.390;2023-04-08T10:39:29;101882.16;;;9.94;100.00
36092;BME280;22147;52.388;13.390;2023-04-08T10:42:01;101887.47;;;10.14;100.00
36092;BME280;22147;52.388;13.390;2023-04-08T10:44:30;101885.59;;;10.53;100.00
36092;BME280;22147;52.388;13.390;2023-04-08T10:47:00;101884.78;;;10.71;100.00
36092;BME280;22147;52.388;13.390;2023-04-08T10:49:33;101883.34;;;10.74;100.00
36092;BME280;22147;52.388;13.390;2023-04-08T10:52:07;101889.34;;;10.81;100.00
36092;BME280;22147;52.388;13.390;2023-04-08T10:54:36;101887.25;;;10.73;100.00
36092;BME280;22147;52.388;13.390;2023-04-08T10:57:06;101879.09;;;10.63;100.00
36092;BME280;22147;52.388;13.390;2023-04-08T10:59:36;101891.81;;;10.83;100.00
36092;BME280;22147;52.388;13.390;2023-04-08T11:02:13;101881.88;;;10.63;100.00
36092;BME280;22147;52.388;13.390;2023-04-08T11:04:41;101884.16;;;10.74;100.00
36092;BME280;22147;52.388;13.390;2023-04-08T11:07:12;101886.28;;;10.64;100.00
36092;BME280;22147;52.388;13.390;2023-04-08T11:09:42;101876.34;;;10.38;100.00
36092;BME280;22147;52.388;13.390;2023-04-08T11:12:15;101884.13;;;10.61;100.00
36092;BME280;22147;52.388;13.390;2023-04-08T11:14:46;101872.81;;;10.71;100.00
36092;BME280;22147;52.388;13.390;2023-04-08T11:17:18;101874.25;;;10.68;100.00
36092;BME280;22147;52.388;13.390;2023-04-08T11:19:48;101888.22;;;10.82;100.00
36092;BME280;22147;52.388;13.390;2023-04-08T11:22:17;101891.97;;;10.91;100.00
36092;BME280;22147;52.388;13.390;2023-04-08T11:24:48;101881.91;;;10.76;100.00
36092;BME280;22147;52.388;13.390;2023-04-08T11:27:18;101887.09;;;10.83;100.00
36092;BME280;22147;52.388;13.390;2023-04-08T11:29:48;101891.16;;;10.91;100.00
36092;BME280;22147;52.388;13.390;2023-04-08T11:32:19;101890.00;;;10.92;100.00
36092;BME280;22147;52.388;13.390;2023-04-08T11:34:49;101889.06;;;10.83;100.00
36092;BME280;22147;52.388;13.390;2023-04-08T11:37:20;101893.13;;;10.71;100.00
36092;BME280;22147;52.388;13.390;2023-04-08T11:39:54;101889.06;;;10.83;100.00
36092;BME280;22147;52.388;13.390;2023-04-08T11:42:32;101890.81;;;11.11;97.59
36092;BME280;22147;52.388;13.390;2023-04-08T11:45:10;101886.97;;;11.40;94.75
36092;BME280;22147;52.388;13.390;2023-04-08T11:47:43;101882.53;;;12.13;95.30
36092;BME280;22147;52.388;13.390;2023-04-08T11:50:23;101890.72;;;12.60;92.11
36092;BME280;22147;52.388;13.390;2023-04-08T11:52:54;101886.53;;;12.71;86.44
36092;BME280;22147;52.388;13.390;2023-04-08T11:55:31;101880.28;;;13.33;86.82
36092;BME280;22147;52.388;13.390;2023-04-08T11:58:03;101885.09;;;13.41;84.73
36092;BME280;22147;52.388;13.390;2023-04-08T12:00:35;101875.78;;;13.23;78.51
36092;BME280;22147;52.388;13.390;2023-04-08T12:03:03;101881.94;;;13.12;78.20
36092;BME280;22147;52.388;13.390;2023-04-08T12:05:35;101882.25;;;12.88;77.87
36092;BME280;22147;52.388;13.390;2023-04-08T12:08:05;101885.56;;;13.12;75.76
36092;BME280;22147;52.388;13.390;2023-04-08T12:10:36;101885.88;;;13.11;74.71
36092;BME280;22147;52.388;13.390;2023-04-08T12:13:06;101883.53;;;12.81;74.38
36092;BME280;22147;52.388;13.390;2023-04-08T12:15:37;101881.25;;;12.47;79.57
36092;BME280;22147;52.388;13.390;2023-04-08T12:18:07;101877.69;;;11.91;89.21
36092;BME280;22147;52.388;13.390;2023-04-08T12:20:37;101882.75;;;12.03;87.44
36092;BME280;22147;52.388;13.390;2023-04-08T12:23:07;101881.03;;;11.74;93.52
36092;BME280;22147;52.388;13.390;2023-04-08T12:25:38;101876.94;;;12.27;87.03
36092;BME280;22147;52.388;13.390;2023-04-08T12:28:08;101880.75;;;12.45;85.60
36092;BME280;22147;52.388;13.390;2023-04-08T12:30:40;101884.69;;;12.16;88.15
36092;BME280;22147;52.388;13.390;2023-04-08T12:33:10;101892.81;;;12.40;89.30
36092;BME280;22147;52.388;13.390;2023-04-08T12:35:40;101890.19;;;12.58;83.68
36092;BME280;22147;52.388;13.390;2023-04-08T12:38:11;101892.31;;;12.75;79.02
36092;BME280;22147;52.388;13.390;2023-04-08T12:40:41;101883.66;;;12.76;73.60
36092;BME280;22147;52.388;13.390;2023-04-08T12:43:11;101880.75;;;12.31;76.30
36092;BME280;22147;52.388;13.390;2023-04-08T12:45:40;101880.53;;;12.41;77.82
36092;BME280;22147;52.388;13.390;2023-04-08T12:48:09;101882.81;;;12.39;76.15
36092;BME280;22147;52.388;13.390;2023-04-08T12:50:37;101879.19;;;12.39;78.37
36092;BME280;22147;52.388;13.390;2023-04-08T12:53:05;101879.63;;;12.18;80.70
36092;BME280;22147;52.388;13.390;2023-04-08T12:55:33;101875.91;;;12.73;72.90
36092;BME280;22147;52.388;13.390;2023-04-08T12:58:02;101879.53;;;12.96;76.84
36092;BME280;22147;52.388;13.390;2023-04-08T13:00:30;101878.91;;;13.44;70.55
36092;BME280;22147;52.388;13.390;2023-04-08T13:02:59;101875.09;;;13.72;74.30
36092;BME280;22147;52.388;13.390;2023-04-08T13:05:27;101872.25;;;14.03;68.00
36092;BME280;22147;52.388;13.390;2023-04-08T13:08:11;101870.16;;;13.15;75.59